Time;durP1;ratioP1;P1;durP2;ratioP2;P2;SDS_P1;SDS_P2;PMS_P1;PMS_P2;Temp;Humidity;BMP_temperature;BMP_pressure;BME280_temperature;BME280_humidity;BME280_pressure;Samples;Min_cycle;Max_cycle;Signal;HPM_P1;HPM_P2
2023/06/04 00:00:23;;;;;;;3.53;1.58;;;;;;;16.19;nan;102040.31;5049991;28;20028;-38
2023/06/04 00:02:49;;;;;;;3.47;1.50;;;;;;;16.14;nan;102038.78;5042240;28;20063;-39
2023/06/04 00:05:14;;;;;;;3.63;1.73;;;;;;;16.21;nan;102046.41;5045088;28;20033;-38
2023/06/04 00:07:39;;;;;;;3.63;1.65;;;;;;;16.18;nan;102038.63;5016940;28;20033;-37
2023/06/04 07:20:59;;;;;;;3.92;1.30;;;;;;;17.29;nan;102066.25;5022167;28;20048;-39
2023/06/04 07:23:25;;;;;;;5.38;1.92;;;;;;;17.32;nan;102063.34;5034453;28;20486;-40
2023/06/04 07:25:50;;;;;;;6.07;2.30;;;;;;;17.37;nan;102061.25;5044116;28;20037;-39
2023/06/04 07:28:16;;;;;;;5.63;1.85;;;;;;;17.46;nan;102059.78;5041510;28;20032;-39
2023/06/04 07:30:41;;;;;;;3.10;2.15;;;;;;;17.52;nan;102059.41;5041327;28;20033;-39
2023/06/04 07:33:07;;;;;;;4.32;1.52;;;;;;;17.55;nan;102066.31;5031757;28;20040;-38
2023/06/04 07:35:32;;;;;;;5.13;1.85;;;;;;;17.56;nan;102065.38;5019138;28;20028;-39
2023/06/04 07:37:57;;;;;;;6.47;2.55;;;;;;;17.57;nan;102067.06;5042178;28;20029;-40
2023/06/04 07:40:23;;;;;;;4.80;2.38;;;;;;;17.64;nan;102067.50;5040971;28;20028;-39
2023/06/04 07:42:48;;;;;;;3.83;1.35;;;;;;;17.73;nan;102071.38;5054580;28;20044;-39
2023/06/04 07:45:15;;;;;;;3.88;1.02;;;;;;;17.76;nan;102073.84;5045340;28;20110;-38
2023/06/04 07:47:40;;;;;;;2.65;1.02;;;;;;;17.79;nan;102065.63;5046344;28;20027;-39
2023/06/04 07:50:07;;;;;;;8.05;2.75;;;;;;;17.81;nan;102066.38;5045266;28;20037;-39
2023/06/04 07:52:33;;;;;;;25.98;12.40;;;;;;;17.81;nan;102063.72;5046057;28;20035;-39
2023/06/04 07:55:00;;;;;;;5.30;1.90;;;;;;;17.93;nan;102070.03;5046298;28;20033;-41
2023/06/04 07:57:25;;;;;;;10.20;5.18;;;;;;;18.01;nan;102064.19;5045656;28;20075;-39
2023/06/04 07:59:51;;;;;;;5.32;2.20;;;;;;;17.98;nan;102063.44;5042546;28;20075;-38
2023/06/04 08:02:17;;;;;;;6.40;2.00;;;;;;;18.03;nan;102065.78;5044560;28;20045;-39
2023/06/04 08:04:42;;;;;;;6.75;1.92;;;;;;;18.10;nan;102064.44;5033578;28;20465;-39
2023/06/04 08:07:08;;;;;;;3.05;1.17;;;;;;;18.17;nan;102059.53;5051901;28;20029;-39
2023/06/04 08:09:34;;;;;;;4.13;1.00;;;;;;;18.26;nan;102058.88;5045426;28;20702;-38
2023/06/04 08:11:59;;;;;;;3.08;1.20;;;;;;;18.30;nan;102059.53;5045732;28;20028;-38
2023/06/04 08:14:27;;;;;;;3.78;1.38;;;;;;;18.28;nan;102064.94;5040339;28;21288;-39
2023/06/04 08:16:53;;;;;;;5.10;1.05;;;;;;;18.31;nan;102060.38;5042579;28;20036;-39
2023/06/04 08:19:18;;;;;;;4.95;1.90;;;;;;;18.39;nan;102058.00;5030191;28;20037;-38
2023/06/04 08:21:45;;;;;;;4.35;1.35;;;;;;;18.42;nan;102063.13;5035299;28;20097;-39
2023/06/04 08:24:11;;;;;;;9.25;1.55;;;;;;;18.48;nan;102054.72;5045139;28;20574;-40
2023/06/04 08:26:36;;;;;;;3.72;1.15;;;;;;;18.54;nan;102062.25;5040911;28;20029;-39
2023/06/04 08:29:04;;;;;;;3.88;1.17;;;;;;;18.59;nan;102054.81;5037650;28;20036;-40
2023/06/04 08:31:29;;;;;;;4.78;1.52;;;;;;;18.64;nan;102056.28;5044243;28;20041;-38
2023/06/04 08:33:55;;;;;;;10.15;3.67;;;;;;;18.68;nan;102055.13;5027449;28;20388;-40
2023/06/04 08:36:22;;;;;;;11.07;4.70;;;;;;;18.78;nan;102052.63;5039720;28;20028;-38
2023/06/04 08:38:50;;;;;;;5.05;2.35;;;;;;;18.80;nan;102056.91;5032357;28;20041;-39
2023/06/04 08:41:24;;;;;;;3.38;1.23;;;;;;;18.83;nan;102059.31;5043102;28;20021;-38
2023/06/04 08:43:50;;;;;;;3.13;1.33;;;;;;;18.87;nan;102055.47;5038317;28;20491;-38
2023/06/04 08:46:18;;;;;;;5.97;1.67;;;;;;;18.89;nan;102050.88;5041455;28;20067;-38
2023/06/04 08:48:44;;;;;;;3.63;1.50;;;;;;;18.96;nan;102053.16;5041782;28;20125;-41
2023/06/04 08:51:11;;;;;;;5.07;1.40;;;;;;;19.00;nan;102058.16;5044245;28;20123;-39
2023/06/04 08:53:37;;;;;;;3.67;1.10;;;;;;;19.03;nan;102054.41;5044263;28;20142;-38
2023/06/04 08:56:03;;;;;;;3.55;1.10;;;;;;;19.06;nan;102061.34;5047857;28;20444;-38
2023/06/04 08:58:35;;;;;;;5.03;1.70;;;;;;;19.09;nan;102064.63;5047459;28;20039;-38
2023/06/04 09:01:01;;;;;;;5.22;1.00;;;;;;;19.12;nan;102058.22;5042926;28;20464;-40
2023/06/04 09:03:27;;;;;;;3.28;1.15;;;;;;;19.16;nan;102057.88;5048132;28;20520;-38
2023/06/04 09:05:54;;;;;;;8.52;3.28;;;;;;;19.23;nan;102057.44;5042539;28;20040;-38
2023/06/04 09:08:22;;;;;;;9.32;1.85;;;;;;;19.26;nan;102067.88;5047428;28;20044;-38
2023/06/04 09:10:51;;;;;;;11.88;1.50;;;;;;;19.24;nan;102059.97;5044163;28;20095;-38
2023/06/04 09:13:18;;;;;;;6.95;1.20;;;;;;;19.30;nan;102058.66;5045225;28;20083;-38
2023/06/04 09:15:44;;;;;;;3.28;1.17;;;;;;;19.36;nan;102063.56;5040964;28;20053;-38
2023/06/04 09:18:12;;;;;;;1.98;0.70;;;;;;;19.40;nan;102058.81;5031091;28;20171;-38
2023/06/04 09:20:37;;;;;;;3.80;1.05;;;;;;;19.40;nan;102059.69;5033703;28;20506;-39
2023/06/04 09:23:13;;;;;;;2.03;1.20;;;;;;;19.45;nan;102054.00;5031183;28;20053;-38
2023/06/04 09:25:43;;;;;;;9.75;4.28;;;;;;;19.45;nan;102051.34;5030122;28;20036;-39
2023/06/04 09:28:08;;;;;;;3.92;1.58;;;;;;;19.47;nan;102055.59;5030063;28;20033;-38
2023/06/04 09:30:52;;;;;;;4.40;1.15;;;;;;;19.53;nan;102059.59;5020226;28;20052;-39
2023/06/04 09:33:18;;;;;;;1.98;0.70;;;;;;;19.57;nan;102060.25;5024390;28;20037;-40
2023/06/04 09:35:55;;;;;;;3.03;0.90;;;;;;;19.63;nan;102065.09;5036977;28;20036;-39
2023/06/04 09:38:21;;;;;;;15.20;6.85;;;;;;;19.61;nan;102057.22;5038985;28;20489;-38
2023/06/04 09:40:48;;;;;;;15.23;5.40;;;;;;;19.61;nan;102051.03;5038765;28;20037;-38
2023/06/04 09:43:23;;;;;;;6.60;1.90;;;;;;;19.72;nan;102059.09;5037788;28;20099;-38
2023/06/04 09:45:49;;;;;;;4.15;1.20;;;;;;;19.74;nan;102057.13;5040211;28;20033;-38
2023/06/04 09:48:21;;;;;;;6.32;3.33;;;;;;;19.74;nan;102056.28;5042872;28;20029;-37
2023/06/04 09:50:48;;;;;;;11.60;4.40;;;;;;;19.76;nan;102060.53;5044765;28;20098;-37
2023/06/04 09:53:25;;;;;;;6.75;2.72;;;;;;;19.83;nan;102054.75;5031033;28;20044;-37
2023/06/04 09:55:58;;;;;;;2.22;1.20;;;;;;;19.89;nan;102057.00;5044464;28;20059;-37
2023/06/04 09:58:26;;;;;;;2.72;0.90;;;;;;;19.93;nan;102061.09;5036821;28;20034;-39
2023/06/04 10:00:53;;;;;;;4.13;1.10;;;;;;;19.94;nan;102057.47;5033524;28;20079;-39
2023/06/04 10:03:25;;;;;;;9.15;2.83;;;;;;;20.01;nan;102058.72;5038224;28;20037;-41
2023/06/04 10:05:53;;;;;;;9.75;4.75;;;;;;;20.02;nan;102049.72;5037396;28;20025;-39
2023/06/04 10:08:21;;;;;;;5.00;2.25;;;;;;;20.03;nan;102045.22;5036385;28;20151;-40
2023/06/04 10:10:48;;;;;;;2.25;0.93;;;;;;;20.07;nan;102052.88;5042452;28;20514;-38
2023/06/04 10:13:18;;;;;;;2.67;0.98;;;;;;;20.13;nan;102046.19;5046952;28;20037;-39
2023/06/04 10:15:43;;;;;;;2.80;1.40;;;;;;;20.19;nan;102056.41;5033376;28;20147;-38
2023/06/04 10:18:10;;;;;;;3.45;0.80;;;;;;;20.22;nan;102058.84;5026596;28;20027;-41
2023/06/04 10:20:35;;;;;;;3.63;1.02;;;;;;;20.25;nan;102055.09;5005439;28;20044;-39
2023/06/04 10:23:04;;;;;;;1.88;0.88;;;;;;;20.28;nan;102062.88;5001982;28;20411;-40
2023/06/04 10:25:30;;;;;;;3.88;1.38;;;;;;;20.32;nan;102059.00;5027103;28;21349;-40
2023/06/04 10:27:56;;;;;;;4.05;0.90;;;;;;;20.38;nan;102050.47;5035100;28;20044;-40
2023/06/04 10:30:22;;;;;;;3.92;0.90;;;;;;;20.34;nan;102054.38;5035692;28;20385;-39
2023/06/04 10:32:47;;;;;;;1.63;0.70;;;;;;;20.33;nan;102058.03;5009404;28;20032;-39
2023/06/04 10:35:14;;;;;;;2.30;0.90;;;;;;;20.48;nan;102055.09;5017154;28;20127;-40
2023/06/04 10:37:40;;;;;;;2.60;1.15;;;;;;;20.35;nan;102050.69;5028763;28;20044;-40
2023/06/04 10:40:06;;;;;;;5.20;2.28;;;;;;;20.50;nan;102045.97;5034319;28;20064;-39
2023/06/04 10:42:42;;;;;;;3.33;1.33;;;;;;;20.68;nan;102046.31;5015406;28;20040;-41
2023/06/04 10:45:09;;;;;;;5.30;1.25;;;;;;;20.74;nan;102044.13;5042498;28;20388;-40
2023/06/04 10:47:37;;;;;;;1.45;0.63;;;;;;;20.76;nan;102048.41;5014927;28;20029;-41
2023/06/04 10:50:13;;;;;;;1.83;0.80;;;;;;;20.83;nan;102049.63;5028928;28;20029;-39
2023/06/04 10:52:51;;;;;;;3.47;0.77;;;;;;;20.90;nan;102043.75;5027105;28;20060;-40
2023/06/04 10:55:16;;;;;;;6.07;2.00;;;;;;;20.97;nan;102035.09;5032513;28;20040;-39
2023/06/04 10:57:51;;;;;;;4.50;1.83;;;;;;;21.06;nan;102038.03;5036638;28;20025;-40
2023/06/04 11:00:17;;;;;;;1.75;1.02;;;;;;;21.09;nan;102037.78;5019889;28;20029;-39
2023/06/04 11:02:51;;;;;;;6.22;1.50;;;;;;;21.14;nan;102035.56;5018280;28;20126;-41
2023/06/04 11:05:18;;;;;;;1.52;0.70;;;;;;;21.31;nan;102043.03;5017292;28;20101;-39
2023/06/04 11:07:49;;;;;;;4.25;1.70;;;;;;;21.39;nan;102037.03;5015155;28;20029;-39
2023/06/04 11:10:16;;;;;;;7.95;3.75;;;;;;;21.47;nan;102034.59;5036923;28;20033;-38
2023/06/04 11:12:46;;;;;;;4.63;1.98;;;;;;;21.53;nan;102035.91;5034583;28;20035;-39
2023/06/04 11:15:13;;;;;;;5.93;2.10;;;;;;;21.55;nan;102033.94;5034321;28;20036;-41
2023/06/04 11:17:49;;;;;;;6.72;1.40;;;;;;;21.62;nan;102037.81;5028023;28;20109;-41
2023/06/04 11:20:19;;;;;;;4.40;1.25;;;;;;;21.73;nan;102036.03;5025443;28;20063;-39
2023/06/04 11:22:55;;;;;;;1.73;0.77;;;;;;;21.82;nan;102029.91;5031953;28;20029;-39
2023/06/04 11:25:22;;;;;;;7.68;3.10;;;;;;;21.85;nan;102028.78;5025443;28;20037;-39
2023/06/04 11:27:49;;;;;;;4.85;2.08;;;;;;;21.90;nan;102026.59;5020941;28;20045;-38
2023/06/04 11:30:15;;;;;;;12.45;5.22;;;;;;;21.94;nan;102030.66;5038255;28;20033;-39
2023/06/04 11:32:45;;;;;;;3.80;1.48;;;;;;;22.05;nan;102029.75;5031856;28;20039;-40
2023/06/04 11:35:11;;;;;;;4.72;1.50;;;;;;;22.13;nan;102027.28;5008459;28;20037;-39
2023/06/04 11:37:38;;;;;;;5.60;1.77;;;;;;;22.12;nan;102024.72;5020547;28;20029;-39
2023/06/04 11:40:15;;;;;;;3.13;1.38;;;;;;;22.18;nan;102025.03;5036762;28;20028;-39
2023/06/04 11:42:43;;;;;;;3.28;1.15;;;;;;;22.25;nan;102021.81;5040626;28;20025;-37
2023/06/04 11:45:10;;;;;;;4.10;1.45;;;;;;;22.34;nan;102019.19;5034087;28;20127;-39
2023/06/04 11:47:36;;;;;;;4.95;1.17;;;;;;;22.31;nan;102029.34;5045793;28;20067;-38
2023/06/04 11:50:01;;;;;;;2.78;1.13;;;;;;;22.32;nan;102025.63;5046401;28;20079;-39
2023/06/04 11:52:27;;;;;;;2.67;0.80;;;;;;;22.34;nan;102016.50;5043740;28;20028;-39
2023/06/04 11:54:53;;;;;;;3.92;1.05;;;;;;;22.36;nan;102019.03;5044715;28;20041;-39
2023/06/04 11:57:19;;;;;;;3.40;1.42;;;;;;;22.45;nan;102012.03;5037223;28;20029;-37
2023/06/04 11:59:45;;;;;;;2.08;0.90;;;;;;;22.52;nan;102022.09;5026078;28;20115;-37
2023/06/04 12:02:10;;;;;;;4.80;0.93;;;;;;;22.58;nan;102015.31;5034720;28;20053;-38
2023/06/04 12:04:36;;;;;;;4.82;0.95;;;;;;;22.64;nan;102019.28;5026265;28;20029;-38
2023/06/04 12:07:04;;;;;;;2.10;0.77;;;;;;;22.69;nan;102017.06;5030401;28;21662;-40
2023/06/04 12:09:32;;;;;;;3.20;0.95;;;;;;;22.73;nan;102018.47;5037798;28;20029;-38
2023/06/04 12:12:03;;;;;;;4.57;1.13;;;;;;;22.76;nan;102012.84;5029535;28;20550;-38
2023/06/04 12:14:29;;;;;;;5.50;2.08;;;;;;;22.81;nan;102005.22;5017349;28;20045;-39
2023/06/04 12:16:58;;;;;;;5.65;1.60;;;;;;;22.90;nan;102013.44;5033110;28;20028;-38
2023/06/04 12:19:24;;;;;;;4.38;1.38;;;;;;;22.94;nan;102010.31;5030577;28;20025;-39
2023/06/04 12:22:04;;;;;;;1.85;0.90;;;;;;;23.03;nan;102007.78;5012460;28;22138;-38
2023/06/04 12:24:30;;;;;;;3.55;1.20;;;;;;;23.08;nan;102013.56;5031296;28;20945;-41
2023/06/04 12:27:08;;;;;;;1.77;0.85;;;;;;;23.17;nan;102010.03;5040157;28;20124;-40
2023/06/04 12:29:34;;;;;;;2.92;0.88;;;;;;;23.20;nan;102008.94;5033388;28;20033;-39
2023/06/04 12:32:13;;;;;;;1.77;0.90;;;;;;;23.25;nan;102012.91;5026157;28;20037;-39
2023/06/04 12:34:40;;;;;;;3.60;1.00;;;;;;;23.22;nan;102012.31;5028032;28;20593;-40
2023/06/04 12:37:07;;;;;;;4.18;0.73;;;;;;;23.13;nan;102016.69;5043727;28;20017;-38
2023/06/04 12:39:36;;;;;;;1.50;0.80;;;;;;;23.12;nan;102002.41;5037358;28;20052;-38
2023/06/04 12:42:02;;;;;;;3.88;1.30;;;;;;;23.22;nan;102006.97;5041783;28;20560;-39
2023/06/04 12:44:27;;;;;;;2.03;0.90;;;;;;;23.33;nan;101998.78;5035112;28;20028;-37
2023/06/04 12:46:52;;;;;;;1.40;0.73;;;;;;;23.44;nan;101998.63;5032625;28;20111;-38
2023/06/04 12:49:18;;;;;;;2.25;1.10;;;;;;;23.58;nan;102004.53;5036042;28;20395;-39
2023/06/04 12:51:43;;;;;;;2.13;1.00;;;;;;;23.56;nan;102003.81;5035198;28;20056;-39
2023/06/04 12:54:10;;;;;;;1.95;0.68;;;;;;;23.58;nan;102007.22;5049791;28;20667;-39
2023/06/04 12:56:36;;;;;;;3.72;0.98;;;;;;;23.66;nan;102004.69;5031857;28;20098;-38
2023/06/04 12:59:01;;;;;;;3.30;1.13;;;;;;;23.71;nan;101991.63;5033220;28;20180;-38
2023/06/04 13:01:27;;;;;;;2.30;0.95;;;;;;;23.81;nan;102001.53;5038003;28;20609;-38
2023/06/04 13:03:53;;;;;;;2.05;0.95;;;;;;;23.98;nan;101991.88;5021066;28;20160;-38
2023/06/04 13:06:18;;;;;;;2.30;1.20;;;;;;;24.00;nan;102001.47;5047411;28;20024;-38
2023/06/04 13:08:44;;;;;;;4.78;2.03;;;;;;;24.19;nan;102002.41;5062990;28;20040;-38
2023/06/04 13:11:09;;;;;;;4.22;1.20;;;;;;;24.33;nan;101996.53;5046372;28;20039;-39
2023/06/04 13:13:38;;;;;;;2.38;0.90;;;;;;;24.44;nan;102002.72;5048872;28;20427;-39
2023/06/04 13:16:04;;;;;;;2.40;1.30;;;;;;;24.48;nan;101998.72;5047049;28;20036;-41
2023/06/04 13:18:29;;;;;;;2.88;1.08;;;;;;;24.61;nan;102001.06;5031592;28;20021;-37
2023/06/04 13:20:55;;;;;;;2.60;1.27;;;;;;;24.70;nan;101993.97;5049291;28;20025;-39
2023/06/04 13:23:21;;;;;;;4.68;1.20;;;;;;;24.80;nan;101997.44;5041930;28;20033;-39
2023/06/04 13:25:47;;;;;;;9.63;5.93;;;;;;;24.80;nan;101994.75;5030829;28;20055;-38
2023/06/04 13:28:12;;;;;;;8.13;2.35;;;;;;;24.92;nan;101992.69;5012336;28;20426;-40
2023/06/04 13:30:39;;;;;;;4.07;2.30;;;;;;;25.04;nan;101991.44;5029108;28;20028;-38
2023/06/04 13:33:05;;;;;;;3.55;1.10;;;;;;;24.99;nan;101982.13;5043659;28;20053;-38
2023/06/04 13:35:31;;;;;;;4.35;1.20;;;;;;;25.24;nan;101989.44;5029183;28;20037;-39
2023/06/04 13:37:57;;;;;;;2.40;1.02;;;;;;;25.40;nan;101987.88;5049640;28;20532;-39
2023/06/04 13:40:23;;;;;;;5.22;1.23;;;;;;;25.51;nan;101990.31;5047277;28;20059;-39
2023/06/04 13:42:48;;;;;;;4.15;2.30;;;;;;;25.36;nan;101978.41;5047126;28;20037;-40
2023/06/04 13:45:20;;;;;;;11.68;2.03;;;;;;;25.57;nan;101986.16;5041760;28;20380;-38
2023/06/04 13:47:45;;;;;;;;;;;;;;;25.86;nan;101982.31;5048022;28;20055;-39
2023/06/04 13:50:11;;;;;;;5.97;2.60;;;;;;;25.97;nan;101983.88;5022547;28;19990;-40
2023/06/04 13:52:36;;;;;;;3.40;1.98;;;;;;;26.26;nan;101988.94;5046072;28;20457;-39
2023/06/04 13:55:02;;;;;;;2.28;0.82;;;;;;;26.45;nan;101981.59;5044070;28;20082;-38
2023/06/04 13:57:28;;;;;;;3.33;1.17;;;;;;;26.57;nan;101984.81;5047100;28;20516;-40
2023/06/04 13:59:53;;;;;;;2.33;1.00;;;;;;;26.69;nan;101988.03;5051408;28;20029;-39
2023/06/04 14:02:19;;;;;;;2.80;1.02;;;;;;;26.83;nan;101989.28;5026906;28;20032;-39
2023/06/04 14:04:45;;;;;;;1.83;0.70;;;;;;;26.98;nan;101989.47;5035182;28;20048;-38
2023/06/04 14:07:10;;;;;;;2.15;1.02;;;;;;;27.12;nan;101982.56;5024676;28;20028;-39
2023/06/04 14:09:36;;;;;;;2.38;0.98;;;;;;;27.26;nan;101981.03;5048410;28;20090;-41
2023/06/04 14:12:02;;;;;;;3.92;1.10;;;;;;;27.30;nan;101980.50;5046362;28;20150;-39
2023/06/04 14:14:35;;;;;;;7.53;1.90;;;;;;;27.27;nan;101980.88;5030828;28;20098;-38
2023/06/04 14:17:03;;;;;;;3.42;1.25;;;;;;;27.37;nan;101976.13;5045651;28;20179;-41
2023/06/04 14:19:29;;;;;;;2.35;1.02;;;;;;;27.35;nan;101974.63;5043270;28;20097;-39
2023/06/04 14:21:54;;;;;;;2.08;1.05;;;;;;;27.32;nan;101975.78;5048946;28;20041;-38
2023/06/04 14:24:20;;;;;;;3.88;1.88;;;;;;;27.38;nan;101982.38;5028681;28;20040;-40
2023/06/04 14:26:49;;;;;;;2.42;0.80;;;;;;;27.49;nan;101967.69;5046914;28;20055;-41
2023/06/04 14:29:14;;;;;;;3.10;1.20;;;;;;;27.62;nan;101957.19;5043903;28;20039;-39
2023/06/04 14:31:41;;;;;;;5.40;3.38;;;;;;;27.74;nan;101965.78;5024460;28;20037;-41
2023/06/04 14:34:10;;;;;;;2.00;0.82;;;;;;;27.72;nan;101961.59;5032697;28;20036;-39
2023/06/04 14:36:38;;;;;;;2.22;0.93;;;;;;;27.81;nan;101960.53;5043628;28;20022;-39
2023/06/04 14:39:03;;;;;;;3.63;1.10;;;;;;;27.88;nan;101958.81;5039871;28;20107;-39
2023/06/04 14:41:30;;;;;;;2.25;0.80;;;;;;;27.81;nan;101955.13;5034439;28;20028;-40
2023/06/04 14:43:55;;;;;;;6.22;1.80;;;;;;;27.80;nan;101962.41;5027722;28;20075;-39
2023/06/04 14:46:26;;;;;;;3.15;0.90;;;;;;;27.83;nan;101951.22;5028747;28;20029;-39
2023/06/04 14:48:51;;;;;;;2.58;1.15;;;;;;;27.88;nan;101956.13;5030227;28;20145;-39
2023/06/04 14:51:17;;;;;;;3.22;1.05;;;;;;;27.89;nan;101954.25;5015135;28;21302;-39
2023/06/04 14:53:42;;;;;;;3.47;1.10;;;;;;;28.03;nan;101958.09;5039321;28;20388;-39
2023/06/04 14:56:08;;;;;;;1.95;0.70;;;;;;;28.23;nan;101956.66;5030364;28;20460;-38
2023/06/04 14:58:34;;;;;;;4.18;1.10;;;;;;;28.37;nan;101962.34;5041696;28;20021;-43
2023/06/04 15:01:00;;;;;;;2.20;0.90;;;;;;;28.50;nan;101959.91;5037052;28;20109;-38
2023/06/04 15:03:28;;;;;;;1.83;0.80;;;;;;;28.72;nan;101950.13;5061464;28;20105;-39
2023/06/04 15:05:53;;;;;;;2.00;1.20;;;;;;;28.92;nan;101954.25;5025230;28;20025;-40
2023/06/04 15:08:19;;;;;;;2.17;0.85;;;;;;;28.89;nan;101961.69;5044076;28;20049;-39
2023/06/04 15:10:45;;;;;;;5.47;1.13;;;;;;;28.86;nan;101959.34;5020995;28;20041;-39
2023/06/04 15:13:11;;;;;;;5.28;0.95;;;;;;;28.93;nan;101948.63;5045897;28;20031;-40
2023/06/04 15:15:36;;;;;;;2.85;1.30;;;;;;;28.94;nan;101949.50;5019757;28;20025;-42
2023/06/04 15:18:02;;;;;;;2.22;0.57;;;;;;;28.91;nan;101945.25;5021783;28;20039;-39
2023/06/04 15:20:28;;;;;;;4.15;0.98;;;;;;;29.05;nan;101938.22;5014787;28;20041;-39
2023/06/04 15:22:58;;;;;;;3.08;0.80;;;;;;;29.05;nan;101940.91;5002636;28;20061;-40
2023/06/04 15:25:24;;;;;;;2.30;1.00;;;;;;;28.96;nan;101947.44;5036622;28;20033;-39
2023/06/04 15:27:49;;;;;;;2.70;0.95;;;;;;;28.81;nan;101950.94;5047368;28;20029;-40
2023/06/04 15:30:17;;;;;;;9.02;3.00;;;;;;;28.65;nan;101948.31;5043027;28;20028;-40
2023/06/04 15:32:42;;;;;;;9.77;4.30;;;;;;;28.77;nan;101949.63;5041817;28;20033;-41
2023/06/04 15:35:08;;;;;;;3.47;1.48;;;;;;;29.03;nan;101948.38;5044121;28;20025;-40
2023/06/04 15:37:33;;;;;;;2.00;0.95;;;;;;;29.26;nan;101944.81;5043600;28;20029;-41
2023/06/04 15:40:00;;;;;;;1.98;1.00;;;;;;;29.38;nan;101946.06;5020616;28;20486;-39
2023/06/04 15:42:26;;;;;;;2.58;0.70;;;;;;;29.40;nan;101938.59;5002246;28;20186;-40
2023/06/04 15:44:51;;;;;;;3.03;1.63;;;;;;;29.44;nan;101939.88;5029127;28;20391;-39
2023/06/04 15:47:22;;;;;;;4.00;1.83;;;;;;;29.54;nan;101936.09;5007293;28;20430;-39
2023/06/04 15:49:48;;;;;;;2.50;0.88;;;;;;;29.65;nan;101930.19;5030941;28;20048;-39
2023/06/04 15:52:13;;;;;;;3.42;1.80;;;;;;;29.89;nan;101936.34;5003936;28;20056;-41
2023/06/04 15:54:38;;;;;;;2.72;1.40;;;;;;;30.07;nan;101928.66;5032070;28;20095;-39
2023/06/04 15:57:04;;;;;;;3.20;1.15;;;;;;;30.19;nan;101936.31;5017225;28;20037;-39
2023/06/04 15:59:29;;;;;;;4.55;0.90;;;;;;;30.19;nan;101925.47;5032832;28;20052;-40
2023/06/04 16:01:55;;;;;;;5.25;1.20;;;;;;;30.26;nan;101920.97;5017338;28;20082;-38
2023/06/04 16:04:20;;;;;;;2.05;1.00;;;;;;;30.36;nan;101920.66;5032151;28;20094;-40
2023/06/04 16:06:46;;;;;;;3.50;1.35;;;;;;;30.40;nan;101917.34;5034961;28;21447;-40
2023/06/04 16:09:11;;;;;;;5.10;1.00;;;;;;;30.44;nan;101916.97;5001327;28;20099;-39
2023/06/04 16:11:37;;;;;;;1.85;0.73;;;;;;;30.56;nan;101937.19;5022814;28;20042;-40
2023/06/04 16:14:03;;;;;;;2.42;0.90;;;;;;;30.70;nan;101932.72;5028683;28;20037;-38
2023/06/04 16:16:30;;;;;;;2.78;1.00;;;;;;;30.73;nan;101931.50;5035421;28;20029;-41
2023/06/04 16:18:55;;;;;;;2.05;0.82;;;;;;;30.76;nan;101931.09;5030619;28;20139;-40
2023/06/04 16:21:21;;;;;;;1.33;0.70;;;;;;;30.78;nan;101935.31;5050342;28;20131;-43
2023/06/04 16:23:47;;;;;;;3.08;1.10;;;;;;;30.81;nan;101923.19;5031202;28;20032;-40
2023/06/04 16:26:12;;;;;;;2.47;0.90;;;;;;;30.81;nan;101934.06;5036835;28;20103;-40
2023/06/04 16:28:38;;;;;;;3.90;1.02;;;;;;;30.87;nan;101936.00;5019725;28;20040;-39
2023/06/04 16:31:03;;;;;;;2.67;0.95;;;;;;;30.87;nan;101933.28;5040657;28;20044;-40
2023/06/04 16:33:29;;;;;;;2.00;0.90;;;;;;;30.89;nan;101927.66;5036299;28;20029;-40
2023/06/04 16:35:54;;;;;;;3.28;1.00;;;;;;;30.90;nan;101930.19;5027330;28;20037;-39
2023/06/04 16:38:20;;;;;;;4.60;0.70;;;;;;;31.01;nan;101931.50;5032292;28;20037;-38
2023/06/04 16:40:46;;;;;;;1.65;0.60;;;;;;;31.06;nan;101930.94;5035960;28;20124;-39
2023/06/04 16:43:11;;;;;;;4.57;2.88;;;;;;;31.00;nan;101927.16;5033978;28;20036;-39
2023/06/04 16:45:37;;;;;;;2.42;1.25;;;;;;;30.95;nan;101925.00;5011961;28;20095;-41
2023/06/04 16:48:02;;;;;;;2.35;1.08;;;;;;;30.97;nan;101932.97;5025692;28;20033;-41
2023/06/04 16:50:28;;;;;;;2.47;0.65;;;;;;;30.96;nan;101932.09;5042935;28;20032;-39
2023/06/04 16:52:53;;;;;;;3.72;1.10;;;;;;;30.97;nan;101925.63;5035476;28;20024;-41
2023/06/04 16:55:29;;;;;;;4.97;0.70;;;;;;;30.91;nan;101933.72;5005630;28;20044;-39
2023/06/04 16:57:54;;;;;;;2.17;0.63;;;;;;;30.80;nan;101924.22;5042404;28;20029;-39
2023/06/04 17:00:20;;;;;;;8.98;5.18;;;;;;;30.75;nan;101918.56;5044510;28;20091;-38
2023/06/04 17:02:45;;;;;;;1.48;0.70;;;;;;;30.67;nan;101925.78;5038852;28;20040;-40
2023/06/04 17:05:12;;;;;;;1.73;0.80;;;;;;;30.52;nan;101917.69;5044855;28;20033;-38
2023/06/04 17:07:37;;;;;;;1.67;0.75;;;;;;;30.42;nan;101917.16;5044659;28;20037;-39
2023/06/04 17:10:03;;;;;;;2.20;0.73;;;;;;;30.32;nan;101911.19;5040665;28;20017;-39
2023/06/04 17:12:28;;;;;;;3.80;1.10;;;;;;;30.24;nan;101912.16;5042137;28;20110;-38
2023/06/04 17:14:55;;;;;;;2.03;0.68;;;;;;;30.11;nan;101919.13;5053175;28;20052;-39
2023/06/04 17:17:20;;;;;;;1.30;0.70;;;;;;;30.04;nan;101918.19;5035853;28;20054;-38
2023/06/04 17:19:47;;;;;;;3.05;1.00;;;;;;;30.00;nan;101921.47;5010036;28;20449;-40
2023/06/04 17:22:13;;;;;;;4.20;0.80;;;;;;;29.90;nan;101924.44;5040292;28;20105;-39
2023/06/04 17:24:41;;;;;;;2.08;0.88;;;;;;;29.78;nan;101919.50;5040128;28;20025;-39
2023/06/04 17:27:08;;;;;;;2.80;0.77;;;;;;;29.41;nan;101920.44;5040478;28;20054;-40
2023/06/04 17:29:36;;;;;;;5.35;1.48;;;;;;;29.45;nan;101921.78;5031890;28;20040;-43
2023/06/04 17:32:06;;;;;;;2.30;0.93;;;;;;;29.32;nan;101919.66;5031121;28;20175;-38
2023/06/04 17:34:36;;;;;;;2.10;0.80;;;;;;;29.10;nan;101916.84;5006329;28;20123;-40
2023/06/04 17:37:02;;;;;;;1.90;0.85;;;;;;;29.08;nan;101921.59;4998320;28;20025;-41
2023/06/04 17:39:30;;;;;;;2.83;0.88;;;;;;;29.03;nan;101926.72;5009520;28;20040;-39
2023/06/04 17:41:55;;;;;;;1.30;0.80;;;;;;;28.96;nan;101923.06;5026986;28;20558;-39
2023/06/04 17:44:21;;;;;;;3.00;0.93;;;;;;;28.88;nan;101930.22;5035475;28;20042;-40
2023/06/04 17:46:46;;;;;;;2.10;0.88;;;;;;;28.75;nan;101924.56;5022239;28;20041;-38
2023/06/04 17:49:14;;;;;;;2.25;0.80;;;;;;;28.67;nan;101930.88;5032455;28;20032;-39
2023/06/04 17:51:39;;;;;;;2.22;0.68;;;;;;;28.55;nan;101922.31;5009244;28;20090;-39
2023/06/04 17:54:05;;;;;;;1.75;0.75;;;;;;;28.40;nan;101921.41;5019413;28;20407;-38
2023/06/04 17:56:30;;;;;;;5.00;3.00;;;;;;;28.23;nan;101920.66;4999595;28;20036;-40
2023/06/04 17:58:56;;;;;;;4.03;2.40;;;;;;;28.15;nan;101918.84;5020164;28;20025;-40
2023/06/04 18:01:23;;;;;;;2.97;1.55;;;;;;;28.10;nan;101921.22;5032670;28;20044;-39
2023/06/04 18:03:49;;;;;;;2.53;0.90;;;;;;;28.04;nan;101919.22;5037076;28;20028;-38
2023/06/04 18:06:18;;;;;;;4.78;1.30;;;;;;;27.99;nan;101925.97;5026489;28;20037;-40
2023/06/04 18:08:43;;;;;;;2.58;0.88;;;;;;;27.99;nan;101925.13;5035721;28;20163;-43
2023/06/04 18:11:09;;;;;;;3.55;1.00;;;;;;;27.93;nan;101921.25;5036900;28;20033;-38
2023/06/04 18:13:34;;;;;;;4.43;1.23;;;;;;;27.86;nan;101925.69;5031351;28;20041;-40
2023/06/04 18:16:00;;;;;;;2.53;0.93;;;;;;;27.75;nan;101923.38;5027343;28;20135;-41
2023/06/04 18:18:25;;;;;;;2.35;1.15;;;;;;;27.62;nan;101919.34;5030306;28;20032;-39
2023/06/04 18:20:51;;;;;;;4.57;1.00;;;;;;;27.52;nan;101924.13;5036985;28;20035;-39
2023/06/04 18:23:17;;;;;;;1.75;0.80;;;;;;;27.43;nan;101931.34;5029775;28;20021;-40
2023/06/04 18:25:42;;;;;;;2.08;0.80;;;;;;;27.34;nan;101927.00;5008691;28;20033;-39
2023/06/04 18:28:08;;;;;;;3.60;1.60;;;;;;;27.21;nan;101933.78;5020882;28;20033;-38
2023/06/04 18:30:38;;;;;;;5.20;1.92;;;;;;;27.07;nan;101932.59;5041855;28;20088;-41
2023/06/04 18:33:03;;;;;;;8.43;4.47;;;;;;;26.95;nan;101924.97;5045365;28;20044;-41
2023/06/04 18:35:32;;;;;;;9.45;4.43;;;;;;;26.84;nan;101924.31;5027807;28;20033;-39
2023/06/04 18:37:57;;;;;;;10.82;6.22;;;;;;;26.75;nan;101928.84;5047798;28;20048;-41
2023/06/04 18:40:23;;;;;;;8.65;2.47;;;;;;;26.62;nan;101925.78;5014699;28;20037;-41
2023/06/04 18:42:48;;;;;;;2.88;1.42;;;;;;;26.48;nan;101933.53;5020947;28;20691;-39
2023/06/04 18:45:14;;;;;;;3.60;1.50;;;;;;;26.34;nan;101931.47;5031109;28;20204;-41
2023/06/04 18:47:39;;;;;;;3.55;1.30;;;;;;;26.21;nan;101933.78;5037703;28;20057;-39
2023/06/04 18:50:06;;;;;;;6.68;1.80;;;;;;;26.04;nan;101936.38;5039124;28;20044;-40